createdAt,value
2023-03-25T00:02:17.896Z,9.32
2023-03-25T00:04:51.141Z,9.32
2023-03-25T00:07:23.228Z,9.29
2023-03-25T00:09:51.739Z,9.23
2023-03-25T00:12:23.348Z,9.15
2023-03-25T00:14:55.854Z,9.16
2023-03-25T00:17:31.889Z,9.15
2023-03-25T00:20:02.690Z,9.15
2023-03-25T00:22:41.819Z,9.09
2023-03-25T00:25:19.591Z,9.05
2023-03-25T00:27:49.136Z,9.05
2023-03-25T00:30:20.397Z,8.97
2023-03-25T00:32:53.236Z,8.95
2023-03-25T00:35:22.803Z,8.93
2023-03-25T00:38:00.578Z,8.96
2023-03-25T00:40:42.628Z,8.97
2023-03-25T00:43:11.615Z,8.95
2023-03-25T00:45:40.709Z,8.95
2023-03-25T00:48:09.127Z,8.94
2023-03-25T00:50:37.751Z,8.92
2023-03-25T00:53:10.027Z,8.90
2023-03-25T00:55:41.716Z,8.89
2023-03-25T00:58:10.465Z,8.87
2023-03-25T01:00:39.854Z,8.79
2023-03-25T01:03:10.576Z,8.81
2023-03-25T01:05:42.122Z,8.82
2023-03-25T01:08:10.934Z,8.82
2023-03-25T01:10:40.760Z,8.83
2023-03-25T01:13:10.849Z,8.81
2023-03-25T01:15:42.901Z,8.79
2023-03-25T01:18:11.208Z,8.76
2023-03-25T01:20:40.905Z,8.70
2023-03-25T01:23:12.997Z,8.73
2023-03-25T01:25:41.322Z,8.73
2023-03-25T01:28:11.567Z,8.73
2023-03-25T01:30:39.852Z,8.67
2023-03-25T01:33:12.095Z,8.64
2023-03-25T01:35:43.736Z,8.60
2023-03-25T01:38:13.590Z,8.59
2023-03-25T01:40:42.336Z,8.57
2023-03-25T01:43:13.995Z,8.50
2023-03-25T01:45:45.580Z,8.50
2023-03-25T01:48:33.417Z,8.50
2023-03-25T01:51:05.624Z,8.47
2023-03-25T01:53:34.178Z,8.42
2023-03-25T01:56:07.230Z,8.34
2023-03-25T01:58:37.944Z,8.32
2023-03-25T02:01:13.990Z,8.25
2023-03-25T02:03:46.753Z,8.26
2023-03-25T02:06:39.916Z,8.24
2023-03-25T02:09:12.652Z,8.19
2023-03-25T02:11:41.465Z,8.16
2023-03-25T02:14:16.538Z,8.13
2023-03-25T02:17:01.593Z,8.09
2023-03-25T02:20:09.897Z,8.06
2023-03-25T02:23:08.329Z,8.00
2023-03-25T02:25:59.370Z,7.96
2023-03-25T02:28:43.051Z,7.93
2023-03-25T02:31:37.107Z,7.90
2023-03-25T02:34:30.035Z,7.86
2023-03-25T02:37:23.402Z,7.81
2023-03-25T02:40:07.562Z,7.75
2023-03-25T02:42:55.933Z,7.71
2023-03-25T02:45:33.390Z,7.69
2023-03-25T02:48:06.028Z,7.66
2023-03-25T02:50:41.537Z,7.63
2023-03-25T02:53:14.667Z,7.59
2023-03-25T02:55:47.443Z,7.57
2023-03-25T02:58:18.540Z,7.56
2023-03-25T03:00:52.570Z,7.53
2023-03-25T03:03:23.053Z,7.52
2023-03-25T03:05:52.611Z,7.47
2023-03-25T03:08:51.622Z,7.45
2023-03-25T03:11:43.293Z,7.42
2023-03-25T03:14:31.295Z,7.40
2023-03-25T03:17:18.842Z,7.41
2023-03-25T03:20:28.661Z,7.47
2023-03-25T03:23:11.364Z,7.48
2023-03-25T03:25:51.567Z,7.46
2023-03-25T03:28:38.318Z,7.50
2023-03-25T03:31:48.822Z,7.54
2023-03-25T03:34:19.162Z,7.61
2023-03-25T03:36:51.397Z,7.65
2023-03-25T03:39:22.247Z,7.70
2023-03-25T03:41:54.521Z,7.80
2023-03-25T03:44:27.090Z,7.88
2023-03-25T03:47:24.788Z,7.99
2023-03-25T03:50:16.502Z,8.23
2023-03-25T03:52:50.924Z,8.43
2023-03-25T03:55:56.848Z,8.61
2023-03-25T03:58:53.723Z,8.88
2023-03-25T04:01:35.722Z,9.34
2023-03-25T04:04:06.609Z,9.97
2023-03-25T04:06:42.161Z,10.69
2023-03-25T04:09:28.708Z,11.23
2023-03-25T04:12:08.272Z,11.77
2023-03-25T04:14:41.727Z,12.18
2023-03-25T04:17:11.655Z,12.26
2023-03-25T04:19:39.988Z,12.12
2023-03-25T04:22:18.869Z,12.10
2023-03-25T04:24:50.282Z,12.06
2023-03-25T04:27:20.539Z,11.82
2023-03-25T04:29:49.935Z,11.61
2023-03-25T04:32:18.648Z,11.20
2023-03-25T04:34:47.538Z,11.21
2023-03-25T04:37:17.309Z,11.45
2023-03-25T04:39:45.509Z,11.51
2023-03-25T04:42:19.233Z,11.88
2023-03-25T04:44:48.435Z,12.22
2023-03-25T04:47:28.041Z,12.12
2023-03-25T04:49:56.227Z,11.42
2023-03-25T04:52:24.953Z,11.23
2023-03-25T04:54:53.912Z,11.19
2023-03-25T04:57:22.914Z,11.19
2023-03-25T04:59:51.854Z,11.20
2023-03-25T05:02:21.189Z,11.20
2023-03-25T05:04:50.469Z,11.31
2023-03-25T05:07:19.872Z,11.79
2023-03-25T05:09:49.068Z,12.29
2023-03-25T05:12:17.714Z,12.87
2023-03-25T05:14:45.873Z,14.09
2023-03-25T05:17:14.093Z,15.16
2023-03-25T05:19:46.584Z,15.81
2023-03-25T05:22:15.509Z,16.28
2023-03-25T05:24:45.525Z,16.61
2023-03-25T05:27:20.506Z,16.64
2023-03-25T05:29:49.005Z,15.84
2023-03-25T05:32:18.192Z,16.42
2023-03-25T05:34:47.481Z,17.11
2023-03-25T05:37:15.998Z,17.86
2023-03-25T05:39:46.827Z,18.13
2023-03-25T05:42:23.250Z,17.17
2023-03-25T05:44:55.529Z,16.74
2023-03-25T05:47:25.465Z,16.96
2023-03-25T05:49:54.706Z,17.29
2023-03-25T05:52:24.938Z,18.12
2023-03-25T05:54:52.864Z,18.97
2023-03-25T05:57:22.950Z,20.91
2023-03-25T05:59:51.589Z,21.58
2023-03-25T06:02:20.094Z,22.05
2023-03-25T06:04:51.718Z,22.19
2023-03-25T06:07:22.766Z,21.97
2023-03-25T06:09:56.583Z,20.18
2023-03-25T06:12:27.853Z,18.98
2023-03-25T06:14:58.921Z,17.55
2023-03-25T06:17:39.246Z,17.17
2023-03-25T06:20:12.881Z,16.46
2023-03-25T06:22:45.605Z,16.23
2023-03-25T06:25:20.147Z,15.96
2023-03-25T06:27:50.728Z,15.73
2023-03-25T06:30:22.327Z,15.51
2023-03-25T06:33:11.319Z,15.38
2023-03-25T06:35:43.049Z,15.17
2023-03-25T06:38:11.209Z,15.17
2023-03-25T06:40:39.859Z,15.30
2023-03-25T06:43:08.077Z,15.61
2023-03-25T06:45:36.640Z,15.56
2023-03-25T06:48:07.240Z,15.71
2023-03-25T06:50:36.300Z,15.71
2023-03-25T06:53:04.664Z,15.89
2023-03-25T06:55:33.573Z,16.10
2023-03-25T06:58:01.703Z,16.03
2023-03-25T07:00:29.963Z,15.78
2023-03-25T07:03:01.999Z,15.88
2023-03-25T07:05:30.253Z,16.00
2023-03-25T07:08:00.244Z,15.81
2023-03-25T07:10:32.896Z,15.70
2023-03-25T07:13:08.597Z,15.36
2023-03-25T07:15:36.836Z,15.31
2023-03-25T07:18:05.189Z,15.40
2023-03-25T07:20:35.678Z,15.36
2023-03-25T07:23:04.818Z,15.58
2023-03-25T07:25:32.983Z,15.61
2023-03-25T07:28:00.902Z,15.58
2023-03-25T07:30:29.137Z,15.73
2023-03-25T07:33:00.741Z,15.86
2023-03-25T07:35:29.420Z,15.87
2023-03-25T07:37:58.348Z,15.99
2023-03-25T07:40:31.932Z,15.90
2023-03-25T07:43:00.414Z,15.96
2023-03-25T07:45:28.891Z,16.13
2023-03-25T07:48:02.511Z,16.01
2023-03-25T07:50:34.516Z,15.98
2023-03-25T07:53:03.542Z,15.93
2023-03-25T07:55:31.628Z,15.99
2023-03-25T07:58:02.552Z,15.99
2023-03-25T08:00:31.282Z,16.02
2023-03-25T08:03:00.051Z,16.16
2023-03-25T08:05:28.344Z,16.26
2023-03-25T08:08:00.426Z,16.13
2023-03-25T08:10:28.774Z,16.10
2023-03-25T08:12:57.119Z,16.14
2023-03-25T08:15:25.234Z,16.11
2023-03-25T08:17:54.336Z,16.23
2023-03-25T08:20:25.773Z,16.24
2023-03-25T08:22:57.697Z,16.33
2023-03-25T08:25:27.010Z,16.25
2023-03-25T08:27:59.002Z,16.27
2023-03-25T08:30:27.478Z,16.39
2023-03-25T08:32:55.901Z,16.26
2023-03-25T08:35:44.070Z,16.19
2023-03-25T08:38:13.764Z,16.10
2023-03-25T08:40:44.157Z,16.13
2023-03-25T08:43:12.291Z,16.18
2023-03-25T08:45:45.239Z,16.00
2023-03-25T08:48:16.250Z,15.99
2023-03-25T08:50:47.238Z,15.89
2023-03-25T08:53:15.966Z,15.65
2023-03-25T08:55:44.344Z,15.58
2023-03-25T08:58:14.576Z,15.61
2023-03-25T09:00:43.522Z,15.61
2023-03-25T09:03:12.247Z,15.77
2023-03-25T09:05:43.147Z,16.00
2023-03-25T09:08:12.795Z,16.18
2023-03-25T09:10:41.384Z,16.16
2023-03-25T09:13:10.037Z,16.12
2023-03-25T09:15:39.218Z,16.33
2023-03-25T09:18:10.695Z,16.52
2023-03-25T09:20:39.631Z,16.55
2023-03-25T09:23:09.950Z,16.83
2023-03-25T09:25:46.653Z,16.80
2023-03-25T09:28:15.389Z,16.75
2023-03-25T09:30:43.872Z,16.68
2023-03-25T09:33:12.556Z,16.56
2023-03-25T09:35:41.798Z,16.55
2023-03-25T09:38:12.461Z,16.54
2023-03-25T09:40:44.627Z,16.64
2023-03-25T09:43:35.244Z,16.35
2023-03-25T09:46:04.154Z,16.19
2023-03-25T09:48:44.000Z,16.12
2023-03-25T09:51:14.904Z,16.15
2023-03-25T09:54:20.173Z,16.28
2023-03-25T09:56:48.951Z,16.37
2023-03-25T09:59:22.618Z,16.46
2023-03-25T10:02:06.209Z,16.03
2023-03-25T10:04:50.358Z,15.89
2023-03-25T10:07:40.547Z,15.71
2023-03-25T10:10:33.011Z,15.49
2023-03-25T10:13:28.755Z,15.38
2023-03-25T10:16:19.022Z,15.30
2023-03-25T10:19:23.179Z,15.51
2023-03-25T10:21:51.190Z,15.55
2023-03-25T10:24:45.758Z,15.77
2023-03-25T10:27:28.086Z,16.04
2023-03-25T10:30:01.650Z,15.71
2023-03-25T10:32:40.488Z,15.59
2023-03-25T10:35:32.608Z,15.56
2023-03-25T10:38:13.909Z,14.84
2023-03-25T10:40:50.597Z,14.63
2023-03-25T10:43:31.757Z,14.74
2023-03-25T10:46:47.995Z,14.71
2023-03-25T10:49:22.631Z,14.93
2023-03-25T10:51:57.331Z,15.12
2023-03-25T10:54:33.585Z,15.32
2023-03-25T10:57:08.603Z,15.34
2023-03-25T11:00:07.056Z,15.35
2023-03-25T11:02:43.710Z,15.52
2023-03-25T11:05:21.930Z,15.67
2023-03-25T11:08:11.626Z,15.51
2023-03-25T11:10:57.872Z,15.66
2023-03-25T11:13:31.012Z,15.63
2023-03-25T11:16:04.082Z,15.88
2023-03-25T11:18:37.408Z,16.04
2023-03-25T11:21:17.920Z,16.20
2023-03-25T11:23:51.208Z,15.87
2023-03-25T11:26:21.892Z,16.02
2023-03-25T11:28:52.815Z,16.25
2023-03-25T11:31:29.509Z,16.55
2023-03-25T11:34:13.187Z,16.84
2023-03-25T11:37:10.050Z,17.15
2023-03-25T11:39:40.719Z,17.07
2023-03-25T11:42:37.656Z,17.41
2023-03-25T11:45:06.779Z,17.56
2023-03-25T11:47:41.009Z,17.64
2023-03-25T11:50:20.727Z,17.79
2023-03-25T11:52:50.945Z,17.83
2023-03-25T11:55:31.684Z,17.63
2023-03-25T11:58:02.438Z,17.63
2023-03-25T12:00:39.311Z,17.33
2023-03-25T12:03:14.609Z,17.40
2023-03-25T12:06:02.377Z,17.62
2023-03-25T12:08:58.824Z,17.77
2023-03-25T12:11:37.482Z,17.99
2023-03-25T12:14:18.455Z,18.07
2023-03-25T12:16:58.522Z,18.04
2023-03-25T12:19:42.797Z,18.09
2023-03-25T12:22:16.514Z,18.08
2023-03-25T12:25:07.459Z,17.88
2023-03-25T12:28:05.585Z,17.84
2023-03-25T12:30:36.644Z,17.75
2023-03-25T12:33:33.072Z,17.58
2023-03-25T12:36:12.841Z,17.44
2023-03-25T12:39:24.923Z,17.21
2023-03-25T12:42:13.130Z,17.06
2023-03-25T12:44:53.734Z,16.98
2023-03-25T12:47:26.329Z,16.82
2023-03-25T12:50:18.678Z,16.90
2023-03-25T12:53:22.306Z,16.87
2023-03-25T12:56:16.213Z,16.97
2023-03-25T12:59:10.625Z,16.81
2023-03-25T13:02:26.390Z,16.86
2023-03-25T13:05:06.855Z,17.01
2023-03-25T13:07:36.894Z,17.04
2023-03-25T13:10:27.937Z,17.23
2023-03-25T13:12:59.344Z,17.26
2023-03-25T13:15:38.158Z,17.56
2023-03-25T13:18:12.036Z,17.65
2023-03-25T13:20:52.574Z,17.69
2023-03-25T13:23:23.954Z,17.65
2023-03-25T13:25:57.908Z,17.48
2023-03-25T13:28:49.634Z,17.36
2023-03-25T13:31:21.628Z,17.15
2023-03-25T13:34:07.571Z,17.10
2023-03-25T13:36:51.569Z,17.21
2023-03-25T13:39:23.748Z,16.87
2023-03-25T13:42:07.283Z,16.81
2023-03-25T13:44:40.389Z,16.79
2023-03-25T13:47:38.131Z,16.94
2023-03-25T13:50:29.843Z,16.90
2023-03-25T13:53:28.314Z,16.82
2023-03-25T13:56:11.981Z,16.49
2023-03-25T13:59:05.538Z,16.56
2023-03-25T14:02:03.578Z,16.29
2023-03-25T14:04:48.333Z,16.11
2023-03-25T14:08:09.851Z,15.98
2023-03-25T14:11:07.626Z,15.99
2023-03-25T14:13:43.525Z,15.90
2023-03-25T14:16:16.442Z,15.91
2023-03-25T14:18:47.407Z,15.81
2023-03-25T14:21:22.423Z,15.65
2023-03-25T14:24:08.450Z,15.62
2023-03-25T14:26:38.143Z,15.75
2023-03-25T14:29:11.448Z,15.75
2023-03-25T14:31:39.794Z,15.84
2023-03-25T14:34:11.037Z,15.92
2023-03-25T14:36:41.221Z,15.97
2023-03-25T14:39:30.967Z,16.06
2023-03-25T14:42:08.867Z,16.11
2023-03-25T14:44:49.979Z,15.99
2023-03-25T14:47:28.080Z,15.83
2023-03-25T14:50:21.002Z,15.67
2023-03-25T14:52:52.257Z,15.46
2023-03-25T14:55:24.299Z,15.37
2023-03-25T14:57:59.133Z,15.36
2023-03-25T15:00:34.739Z,15.27
2023-03-25T15:03:13.154Z,15.15
2023-03-25T15:05:42.671Z,15.08
2023-03-25T15:08:31.826Z,15.04
2023-03-25T15:11:06.414Z,14.92
2023-03-25T15:13:53.091Z,14.86
2023-03-25T15:16:34.329Z,14.82
2023-03-25T15:19:11.493Z,14.67
2023-03-25T15:21:58.676Z,14.60
2023-03-25T15:24:35.254Z,14.53
2023-03-25T15:27:28.738Z,14.42
2023-03-25T15:29:56.861Z,14.36
2023-03-25T15:32:44.537Z,14.20
2023-03-25T15:35:37.857Z,14.09
2023-03-25T15:38:27.681Z,13.95
2023-03-25T15:41:23.204Z,13.82
2023-03-25T15:44:18.535Z,13.75
2023-03-25T15:47:05.081Z,13.68
2023-03-25T15:50:04.167Z,13.58
2023-03-25T15:52:38.165Z,13.42
2023-03-25T15:55:10.110Z,13.25
2023-03-25T15:57:43.552Z,13.21
2023-03-25T16:00:26.641Z,13.12
2023-03-25T16:03:05.001Z,13.02
2023-03-25T16:05:39.748Z,12.97
2023-03-25T16:08:16.094Z,12.90
2023-03-25T16:10:52.494Z,12.83
2023-03-25T16:13:28.982Z,12.78
2023-03-25T16:16:10.345Z,12.73
2023-03-25T16:18:44.625Z,12.70
2023-03-25T16:21:13.465Z,12.62
2023-03-25T16:23:42.345Z,12.59
2023-03-25T16:26:16.625Z,12.51
2023-03-25T16:28:45.191Z,12.51
2023-03-25T16:31:41.363Z,12.49
2023-03-25T16:34:16.213Z,12.45
2023-03-25T16:36:46.222Z,12.39
2023-03-25T16:39:15.869Z,12.38
2023-03-25T16:41:48.725Z,12.40
2023-03-25T16:44:20.819Z,12.34
2023-03-25T16:46:51.070Z,12.33
2023-03-25T16:49:48.908Z,12.34
2023-03-25T16:52:21.188Z,12.29
2023-03-25T16:54:52.714Z,12.32
2023-03-25T16:57:24.985Z,12.28
2023-03-25T16:59:55.002Z,12.19
2023-03-25T17:02:42.510Z,12.17
2023-03-25T17:05:22.701Z,12.21
2023-03-25T17:08:08.696Z,12.15
2023-03-25T17:10:53.512Z,12.04
2023-03-25T17:13:52.422Z,11.85
2023-03-25T17:16:21.743Z,11.71
2023-03-25T17:18:54.403Z,11.56
2023-03-25T17:21:30.572Z,11.49
2023-03-25T17:24:06.582Z,11.43
2023-03-25T17:26:58.762Z,11.34
2023-03-25T17:29:29.699Z,11.22
2023-03-25T17:31:59.624Z,11.14
2023-03-25T17:34:32.571Z,11.09
2023-03-25T17:37:06.166Z,11.05
2023-03-25T17:39:34.927Z,10.94
2023-03-25T17:42:03.448Z,10.86
2023-03-25T17:44:37.897Z,10.76
2023-03-25T17:47:08.595Z,10.68
2023-03-25T17:49:38.867Z,10.65
2023-03-25T17:52:10.547Z,10.56
2023-03-25T17:54:39.705Z,10.50
2023-03-25T17:57:13.901Z,10.43
2023-03-25T17:59:44.205Z,10.40
2023-03-25T18:02:16.861Z,10.28
2023-03-25T18:04:46.236Z,10.18
2023-03-25T18:07:14.920Z,10.12
2023-03-25T18:09:43.905Z,10.07
2023-03-25T18:12:15.362Z,9.99
2023-03-25T18:14:45.473Z,9.95
2023-03-25T18:17:13.828Z,9.90
2023-03-25T18:19:50.698Z,9.81
2023-03-25T18:22:20.524Z,9.75
2023-03-25T18:24:49.632Z,9.71
2023-03-25T18:27:30.684Z,9.59
2023-03-25T18:30:29.237Z,9.61
2023-03-25T18:32:58.200Z,9.57
2023-03-25T18:35:26.599Z,9.47
2023-03-25T18:37:55.892Z,9.41
2023-03-25T18:40:32.111Z,9.38
2023-03-25T18:43:01.104Z,9.35
2023-03-25T18:45:29.680Z,9.31
2023-03-25T18:47:59.658Z,9.31
2023-03-25T18:50:36.896Z,9.28
2023-03-25T18:53:10.533Z,9.18
2023-03-25T18:55:39.206Z,9.17
2023-03-25T18:58:11.451Z,9.12
2023-03-25T19:00:42.202Z,9.05
2023-03-25T19:03:10.068Z,9.03
2023-03-25T19:05:40.923Z,8.99
2023-03-25T19:08:23.922Z,8.95
2023-03-25T19:10:57.374Z,8.92
2023-03-25T19:13:35.929Z,8.96
2023-03-25T19:16:04.484Z,8.94
2023-03-25T19:18:36.612Z,8.90
2023-03-25T19:21:16.091Z,8.94
2023-03-25T19:23:44.858Z,8.87
2023-03-25T19:26:13.822Z,8.97
2023-03-25T19:28:50.143Z,8.98
2023-03-25T19:31:19.552Z,8.99
2023-03-25T19:33:58.828Z,8.98
2023-03-25T19:36:26.922Z,8.96
2023-03-25T19:39:00.507Z,8.97
2023-03-25T19:41:29.575Z,8.97
2023-03-25T19:43:58.211Z,9.05
2023-03-25T19:46:29.509Z,9.02
2023-03-25T19:49:00.569Z,9.13
2023-03-25T19:51:28.827Z,9.10
2023-03-25T19:54:01.364Z,9.17
2023-03-25T19:56:30.118Z,9.24
2023-03-25T19:58:58.471Z,9.38
2023-03-25T20:01:27.200Z,9.43
2023-03-25T20:03:57.491Z,9.49
2023-03-25T20:06:29.415Z,9.58
2023-03-25T20:08:57.955Z,9.55
2023-03-25T20:11:26.349Z,9.60
2023-03-25T20:14:06.916Z,9.70
2023-03-25T20:16:37.194Z,9.73
2023-03-25T20:19:05.391Z,9.79
2023-03-25T20:21:37.476Z,9.82
2023-03-25T20:24:09.359Z,9.84
2023-03-25T20:26:38.488Z,9.85
2023-03-25T20:29:09.062Z,9.95
2023-03-25T20:31:37.482Z,9.96
2023-03-25T20:34:06.944Z,9.96
2023-03-25T20:36:36.795Z,10.04
2023-03-25T20:39:08.134Z,10.02
2023-03-25T20:41:38.302Z,10.08
2023-03-25T20:44:06.695Z,10.12
2023-03-25T20:46:39.379Z,10.09
2023-03-25T20:49:17.034Z,10.08
2023-03-25T20:51:48.775Z,10.09
2023-03-25T20:54:17.463Z,10.05
2023-03-25T20:56:48.707Z,10.07
2023-03-25T20:59:18.304Z,10.07
2023-03-25T21:01:51.151Z,10.05
2023-03-25T21:04:21.270Z,10.02
2023-03-25T21:06:53.620Z,10.02
2023-03-25T21:09:22.304Z,10.01
2023-03-25T21:11:51.307Z,9.99
2023-03-25T21:14:19.682Z,9.94
2023-03-25T21:16:51.067Z,9.87
2023-03-25T21:19:20.910Z,9.93
2023-03-25T21:21:50.949Z,9.99
2023-03-25T21:24:22.613Z,9.92
2023-03-25T21:26:52.635Z,9.95
2023-03-25T21:29:21.259Z,9.95
2023-03-25T21:31:49.558Z,9.93
2023-03-25T21:34:22.612Z,9.94
2023-03-25T21:36:51.074Z,9.96
2023-03-25T21:39:44.165Z,9.92
2023-03-25T21:42:12.552Z,9.95
2023-03-25T21:44:49.975Z,9.97
2023-03-25T21:47:18.413Z,9.94
2023-03-25T21:49:47.162Z,9.94
2023-03-25T21:52:15.622Z,9.93
2023-03-25T21:54:43.980Z,9.85
2023-03-25T21:57:13.609Z,9.80
2023-03-25T21:59:41.883Z,9.87
2023-03-25T22:02:14.648Z,9.79
2023-03-25T22:04:43.293Z,9.83
2023-03-25T22:07:11.597Z,9.78
2023-03-25T22:09:41.307Z,9.77
2023-03-25T22:12:09.552Z,9.78
2023-03-25T22:14:37.699Z,9.80
2023-03-25T22:17:16.975Z,9.75
2023-03-25T22:19:47.585Z,9.77
2023-03-25T22:22:19.474Z,9.74
2023-03-25T22:24:49.033Z,9.61
2023-03-25T22:27:17.835Z,9.60
2023-03-25T22:29:49.076Z,9.58
2023-03-25T22:32:17.444Z,9.50
2023-03-25T22:34:46.344Z,9.54
2023-03-25T22:37:16.312Z,9.54
2023-03-25T22:39:44.980Z,9.59
2023-03-25T22:42:13.351Z,9.53
2023-03-25T22:44:45.067Z,9.49
2023-03-25T22:47:13.381Z,9.45
2023-03-25T22:49:44.624Z,9.48
2023-03-25T22:52:13.122Z,9.52
2023-03-25T22:54:41.664Z,9.52
2023-03-25T22:57:09.722Z,9.49
2023-03-25T22:59:39.790Z,9.46
2023-03-25T23:02:08.332Z,9.38
2023-03-25T23:04:37.258Z,9.42
2023-03-25T23:07:08.359Z,9.39
2023-03-25T23:09:45.285Z,9.42
2023-03-25T23:12:21.415Z,9.40
2023-03-25T23:14:53.146Z,9.47
2023-03-25T23:17:25.740Z,9.44
2023-03-25T23:19:53.949Z,9.40
2023-03-25T23:22:25.461Z,9.35
2023-03-25T23:24:53.858Z,9.38
2023-03-25T23:27:22.749Z,9.38
2023-03-25T23:29:54.015Z,9.33
2023-03-25T23:32:22.858Z,9.26
2023-03-25T23:34:51.477Z,9.35
2023-03-25T23:37:19.985Z,9.30
2023-03-25T23:39:53.533Z,9.35
2023-03-25T23:42:23.306Z,9.25
2023-03-25T23:45:03.835Z,9.25
2023-03-25T23:47:34.543Z,9.27
2023-03-25T23:50:02.593Z,9.30
2023-03-25T23:52:34.173Z,9.21
2023-03-25T23:55:03.226Z,9.26
2023-03-25T23:57:31.938Z,9.24
